Terminal Aerodrome Forecast
Issued by NWS Louisville, KY

Home | Current Version | Previous Version | Text Only | Print | Product List | Glossary On
Versions: 1 2 3 4 5 6 7 8 9 10 11 12 13 14 15 16 17 18 19 20 21 22 23 24
000
FTUS43 KLMK 281100
TAFSDF
TAF
KSDF 281120Z 2812/2918 36007KT P6SM SKC
     FM281700 34007KT P6SM FEW040
     FM290000 VRB04KT P6SM FEW250
     FM291000 17008KT P6SM SCT150=

USA.gov is the U.S. government's official web portal to all federal, state and local government web resources and services.